Time;durP1;ratioP1;P1;durP2;ratioP2;P2;SDS_P1;SDS_P2;PMS_P1;PMS_P2;Temp;Humidity;BMP_temperature;BMP_pressure;BME280_temperature;BME280_humidity;BME280_pressure;Samples;Min_cycle;Max_cycle;Signal;HPM_P1;HPM_P2
2023/05/17 00:00:24;;;;;;;6.07;4.78;;;19.30;66.10;;;;;;5077523;28;20149;-84
2023/05/17 00:02:51;;;;;;;5.68;5.03;;;19.20;66.10;;;;;;5094068;28;20192;-85
2023/05/17 00:05:16;;;;;;;5.18;4.72;;;19.20;66.00;;;;;;5077180;28;20160;-83
2023/05/17 00:07:42;;;;;;;5.30;4.80;;;19.20;66.10;;;;;;5095460;28;20153;-83
2023/05/17 00:10:08;;;;;;;5.60;4.60;;;19.20;66.10;;;;;;5094140;28;20157;-83
2023/05/17 00:12:36;;;;;;;7.80;4.47;;;19.20;66.10;;;;;;5094321;28;20157;-83
2023/05/17 00:15:03;;;;;;;5.75;4.68;;;19.20;66.10;;;;;;5093950;28;20157;-83
2023/05/17 00:17:28;;;;;;;6.45;5.00;;;19.20;66.20;;;;;;5093848;28;20619;-83
2023/05/17 00:19:54;;;;;;;8.55;4.80;;;19.20;66.10;;;;;;5093494;28;20230;-84
2023/05/17 00:22:20;;;;;;;5.38;4.85;;;19.20;66.30;;;;;;5077712;28;20204;-84
2023/05/17 00:24:46;;;;;;;6.72;5.10;;;19.20;66.30;;;;;;5077144;28;20187;-84
2023/05/17 00:27:12;;;;;;;6.88;4.85;;;19.20;66.30;;;;;;5077136;28;20513;-83
2023/05/17 00:29:38;;;;;;;7.32;5.10;;;19.20;66.30;;;;;;5093651;28;20654;-83
2023/05/17 00:32:04;;;;;;;6.97;4.60;;;19.20;66.30;;;;;;5093887;28;20239;-84
2023/05/17 00:34:30;;;;;;;4.95;4.45;;;19.20;66.20;;;;;;5076974;28;20160;-84
2023/05/17 00:36:55;;;;;;;5.60;4.95;;;19.20;66.20;;;;;;5093890;28;20685;-84
2023/05/17 00:39:21;;;;;;;5.18;4.68;;;19.20;66.00;;;;;;5076855;28;20161;-83
2023/05/17 00:41:46;;;;;;;5.43;4.93;;;19.20;66.10;;;;;;5093539;28;20184;-84
2023/05/17 00:44:15;;;;;;;6.28;4.95;;;19.20;65.90;;;;;;5076799;28;20184;-84
2023/05/17 00:46:42;;;;;;;5.40;4.88;;;19.20;66.10;;;;;;5093897;28;20153;-83
2023/05/17 00:49:07;;;;;;;5.38;4.78;;;19.20;66.00;;;;;;5093859;28;20153;-84
2023/05/17 00:51:34;;;;;;;5.20;4.70;;;19.20;66.10;;;;;;5093585;28;20153;-85
2023/05/17 00:53:59;;;;;;;6.60;4.80;;;19.20;66.10;;;;;;5093503;28;20181;-84
2023/05/17 00:56:25;;;;;;;5.32;4.82;;;19.20;66.10;;;;;;5093499;28;20566;-84
2023/05/17 00:58:51;;;;;;;6.40;4.57;;;19.20;66.00;;;;;;5095135;28;20171;-84
2023/05/17 01:01:19;;;;;;;5.20;4.60;;;19.20;66.10;;;;;;5097438;28;20268;-84
2023/05/17 01:03:45;;;;;;;5.28;4.65;;;19.20;66.00;;;;;;5080378;28;20161;-84
2023/05/17 01:06:10;;;;;;;6.75;4.93;;;19.30;65.80;;;;;;5097575;28;20159;-84
2023/05/17 01:08:36;;;;;;;4.85;4.35;;;19.30;66.00;;;;;;5080166;28;20180;-84
2023/05/17 01:11:25;;;;;;;6.05;5.15;;;19.20;65.90;;;;;;5097576;28;20193;-84
2023/05/17 01:13:57;;;;;;;6.00;4.90;;;19.20;66.10;;;;;;5097314;28;20604;-84
2023/05/17 01:16:29;;;;;;;5.43;4.93;;;19.20;65.90;;;;;;5097841;28;20153;-84
2023/05/17 01:19:02;;;;;;;5.10;4.60;;;19.20;66.00;;;;;;5097070;28;20216;-84
2023/05/17 01:21:36;;;;;;;5.13;4.63;;;19.20;65.90;;;;;;5097456;28;20197;-83
2023/05/17 01:24:20;;;;;;;5.90;4.78;;;19.20;66.00;;;;;;5081361;28;20164;-84
2023/05/17 01:26:47;;;;;;;4.78;4.22;;;19.20;66.00;;;;;;5096980;28;20183;-84
2023/05/17 01:29:13;;;;;;;5.40;4.85;;;19.20;65.90;;;;;;5096564;28;20152;-83
2023/05/17 01:31:40;;;;;;;5.50;4.65;;;19.20;65.90;;;;;;5097155;28;20161;-83
2023/05/17 01:34:07;;;;;;;4.90;4.40;;;19.10;65.80;;;;;;5097988;28;20153;-84
2023/05/17 01:36:32;;;;;;;5.30;4.75;;;19.10;65.90;;;;;;5096827;28;20157;-84
2023/05/17 01:39:00;;;;;;;6.53;4.80;;;19.20;65.90;;;;;;5096471;28;20168;-84
2023/05/17 01:41:39;;;;;;;5.32;4.75;;;19.20;66.10;;;;;;5096617;28;20184;-83
2023/05/17 01:44:12;;;;;;;5.72;4.50;;;19.20;65.90;;;;;;5096998;28;20152;-84
2023/05/17 01:46:40;;;;;;;5.57;5.07;;;19.20;65.80;;;;;;5096802;28;20210;-84
2023/05/17 01:49:24;;;;;;;6.28;4.88;;;19.20;65.80;;;;;;5079577;28;20643;-84
2023/05/17 01:51:56;;;;;;;4.47;4.00;;;19.20;66.00;;;;;;5096566;28;20165;-83
2023/05/17 01:54:27;;;;;;;5.13;4.63;;;19.20;65.80;;;;;;5097666;28;20157;-85
2023/05/17 01:56:56;;;;;;;6.10;4.80;;;19.20;65.80;;;;;;5079775;28;20168;-83
2023/05/17 01:59:27;;;;;;;5.72;4.53;;;19.20;65.90;;;;;;5096093;28;20540;-84
2023/05/17 02:01:56;;;;;;;5.05;4.50;;;19.20;65.90;;;;;;5096451;28;20188;-83
2023/05/17 02:04:21;;;;;;;5.10;4.60;;;19.20;65.90;;;;;;5097014;28;20149;-84
2023/05/17 02:06:47;;;;;;;6.97;4.63;;;19.20;65.70;;;;;;5116367;28;20272;-84
2023/05/17 02:09:12;;;;;;;6.28;4.63;;;19.10;65.80;;;;;;5115949;28;20198;-83
2023/05/17 02:11:38;;;;;;;5.38;4.82;;;19.20;65.90;;;;;;5098482;28;20176;-83
2023/05/17 02:14:05;;;;;;;5.03;4.57;;;19.20;66.00;;;;;;5099629;28;20172;-84
2023/05/17 02:16:30;;;;;;;5.20;4.70;;;19.10;65.90;;;;;;5099386;28;20175;-83
2023/05/17 02:18:56;;;;;;;7.18;4.85;;;19.20;65.80;;;;;;5099191;28;20304;-84
2023/05/17 02:21:22;;;;;;;5.50;4.95;;;19.10;65.90;;;;;;5115742;28;20196;-84
2023/05/17 02:23:47;;;;;;;5.15;4.65;;;19.20;65.80;;;;;;5098896;28;20243;-84
2023/05/17 02:26:13;;;;;;;5.25;4.72;;;19.20;65.90;;;;;;5099252;28;20160;-84
2023/05/17 02:28:38;;;;;;;6.45;4.80;;;19.10;65.80;;;;;;5116047;28;20231;-83
2023/05/17 02:31:06;;;;;;;5.55;4.60;;;19.20;66.00;;;;;;5133211;27;20164;-83
2023/05/17 02:33:33;;;;;;;6.15;4.47;;;19.10;65.90;;;;;;5132409;27;20217;-84
2023/05/17 02:35:58;;;;;;;5.50;4.97;;;19.10;66.00;;;;;;5115891;28;20163;-84
2023/05/17 02:38:24;;;;;;;6.10;4.65;;;19.20;65.90;;;;;;5115717;28;20164;-84
2023/05/17 02:40:50;;;;;;;6.07;4.88;;;19.10;65.90;;;;;;5099257;28;20164;-84
2023/05/17 02:43:15;;;;;;;5.00;4.50;;;19.10;65.80;;;;;;5117068;28;20510;-83
2023/05/17 02:45:42;;;;;;;5.35;4.50;;;19.10;65.90;;;;;;5098537;28;20247;-84
2023/05/17 02:48:09;;;;;;;5.82;4.85;;;19.10;65.80;;;;;;5115634;28;20176;-84
2023/05/17 02:50:35;;;;;;;5.18;4.68;;;19.10;65.90;;;;;;5115520;28;20235;-84
2023/05/17 02:53:00;;;;;;;5.10;4.60;;;19.10;65.80;;;;;;5115528;28;20180;-84
2023/05/17 02:55:26;;;;;;;6.93;5.10;;;19.10;65.80;;;;;;5115487;28;20156;-84
2023/05/17 02:57:53;;;;;;;5.55;5.05;;;19.10;65.70;;;;;;5115279;28;20666;-84
2023/05/17 03:00:20;;;;;;;5.40;4.80;;;19.10;65.80;;;;;;5098657;28;20160;-82
2023/05/17 03:02:45;;;;;;;6.35;4.70;;;19.20;65.80;;;;;;5115466;28;20187;-82
2023/05/17 03:05:11;;;;;;;5.18;4.60;;;19.10;65.80;;;;;;5115329;28;20152;-83
2023/05/17 03:07:37;;;;;;;5.70;4.60;;;19.20;65.90;;;;;;5098883;28;20179;-83
2023/05/17 03:10:05;;;;;;;5.47;4.97;;;19.10;65.80;;;;;;5115318;28;20156;-82
2023/05/17 03:12:31;;;;;;;5.30;4.80;;;19.10;65.90;;;;;;5115256;28;20189;-83
2023/05/17 03:14:57;;;;;;;5.32;4.82;;;19.10;65.90;;;;;;5098598;28;20168;-83
2023/05/17 03:17:25;;;;;;;6.22;4.65;;;19.10;65.90;;;;;;5098228;28;20538;-83
2023/05/17 03:19:50;;;;;;;5.97;4.75;;;19.10;65.70;;;;;;5114899;28;20577;-82
2023/05/17 03:22:16;;;;;;;5.13;4.55;;;19.10;65.70;;;;;;5097561;28;20191;-82
2023/05/17 03:24:42;;;;;;;5.28;4.78;;;19.10;65.90;;;;;;5114867;28;20259;-82
2023/05/17 03:27:07;;;;;;;5.53;4.93;;;19.10;65.80;;;;;;5114959;28;20148;-83
2023/05/17 03:29:33;;;;;;;5.57;4.55;;;19.10;65.90;;;;;;5114574;28;20563;-83
2023/05/17 03:32:00;;;;;;;5.28;4.78;;;19.10;65.90;;;;;;5114652;27;20217;-82
2023/05/17 03:34:25;;;;;;;5.00;4.50;;;19.10;65.90;;;;;;5099015;28;20203;-83
2023/05/17 03:36:51;;;;;;;5.22;4.72;;;19.10;65.90;;;;;;5098424;28;20164;-82
2023/05/17 03:39:17;;;;;;;5.60;4.70;;;19.10;65.90;;;;;;5117850;28;20159;-82
2023/05/17 03:41:42;;;;;;;5.28;4.60;;;19.10;65.90;;;;;;5117465;28;20184;-82
2023/05/17 03:44:08;;;;;;;5.47;4.93;;;19.10;65.80;;;;;;5100593;28;20624;-83
2023/05/17 03:46:33;;;;;;;6.72;4.50;;;19.10;65.70;;;;;;5100897;28;20258;-82
2023/05/17 03:49:00;;;;;;;5.50;4.90;;;19.10;65.70;;;;;;5117043;28;20167;-82
2023/05/17 03:51:26;;;;;;;6.20;4.65;;;19.10;65.70;;;;;;5133868;27;20212;-83
2023/05/17 03:53:56;;;;;;;5.70;4.53;;;19.10;65.70;;;;;;5117591;28;20238;-82
2023/05/17 03:56:22;;;;;;;5.30;4.80;;;19.10;65.80;;;;;;5117011;28;20653;-82
2023/05/17 03:58:49;;;;;;;4.88;4.45;;;19.10;65.80;;;;;;5117645;28;20174;-84
2023/05/17 04:01:14;;;;;;;4.88;4.35;;;19.10;65.70;;;;;;5115631;28;20190;-82
2023/05/17 04:03:40;;;;;;;5.32;4.43;;;19.10;65.80;;;;;;5097785;28;20187;-83
2023/05/17 04:06:07;;;;;;;5.47;4.78;;;19.10;65.60;;;;;;5098003;28;20190;-82
2023/05/17 04:08:34;;;;;;;5.03;4.53;;;19.10;65.60;;;;;;5097473;28;20649;-83
2023/05/17 04:11:08;;;;;;;4.82;4.38;;;19.10;65.80;;;;;;5114342;28;20152;-83
2023/05/17 04:13:36;;;;;;;5.90;4.78;;;19.10;65.70;;;;;;5114617;28;20159;-82
2023/05/17 04:16:03;;;;;;;5.30;4.70;;;19.10;65.80;;;;;;5097941;28;20610;-83
2023/05/17 04:18:28;;;;;;;7.07;4.70;;;19.10;65.60;;;;;;5102670;27;20628;-83
2023/05/17 04:20:55;;;;;;;4.68;4.28;;;19.10;65.60;;;;;;5138232;27;20193;-83
2023/05/17 04:23:21;;;;;;;5.65;4.80;;;19.10;65.60;;;;;;5121076;27;20230;-84
2023/05/17 04:25:46;;;;;;;5.18;4.60;;;19.10;65.60;;;;;;5138307;27;20608;-83
2023/05/17 04:28:12;;;;;;;6.85;4.55;;;19.10;65.50;;;;;;5157070;27;20151;-83
2023/05/17 04:30:41;;;;;;;5.53;4.55;;;19.10;65.60;;;;;;5121012;27;20166;-84
2023/05/17 04:33:07;;;;;;;5.20;4.70;;;19.10;65.50;;;;;;5121956;27;20159;-83
2023/05/17 04:35:33;;;;;;;5.43;4.93;;;19.10;65.60;;;;;;5125151;27;20162;-83
2023/05/17 04:37:58;;;;;;;5.07;4.57;;;19.00;65.60;;;;;;5125499;27;20190;-83
2023/05/17 04:40:24;;;;;;;5.88;4.95;;;19.10;65.60;;;;;;5142246;27;20158;-83
2023/05/17 04:42:51;;;;;;;5.15;4.65;;;19.00;65.70;;;;;;5142017;27;20209;-83
2023/05/17 04:45:16;;;;;;;5.18;4.65;;;19.10;65.80;;;;;;5142091;27;20147;-83
2023/05/17 04:47:42;;;;;;;5.63;4.97;;;19.10;65.70;;;;;;5125462;27;20581;-83
2023/05/17 04:50:11;;;;;;;5.03;4.50;;;19.00;65.80;;;;;;5142363;27;20670;-83
2023/05/17 04:52:36;;;;;;;5.00;4.50;;;19.10;65.50;;;;;;5124730;27;20226;-83
2023/05/17 04:55:04;;;;;;;5.30;4.80;;;19.00;65.60;;;;;;5141977;27;20667;-83
2023/05/17 04:57:29;;;;;;;5.32;4.82;;;19.10;65.60;;;;;;5142079;27;20212;-83
2023/05/17 04:59:56;;;;;;;4.82;4.30;;;19.10;65.80;;;;;;5160303;27;20163;-84
2023/05/17 05:02:22;;;;;;;4.70;4.30;;;19.00;65.80;;;;;;5141816;27;20179;-83
2023/05/17 05:04:47;;;;;;;5.45;4.63;;;19.10;65.80;;;;;;5124458;27;20173;-83
2023/05/17 05:07:13;;;;;;;5.45;4.95;;;19.00;65.60;;;;;;5141790;27;20190;-83
2023/05/17 05:09:38;;;;;;;5.43;4.72;;;19.00;65.60;;;;;;5124842;27;20528;-83
2023/05/17 05:12:05;;;;;;;4.95;4.45;;;19.10;65.60;;;;;;5141356;27;20183;-83
2023/05/17 05:14:32;;;;;;;4.60;4.20;;;19.00;65.60;;;;;;5159914;27;20216;-83
2023/05/17 05:16:58;;;;;;;6.93;4.75;;;19.10;65.60;;;;;;5141584;27;20178;-83
2023/05/17 05:19:23;;;;;;;5.38;4.63;;;19.00;65.70;;;;;;5110424;28;20243;-83
2023/05/17 05:21:49;;;;;;;5.25;4.63;;;19.10;65.80;;;;;;5117469;28;20198;-83
2023/05/17 05:24:15;;;;;;;5.15;4.65;;;19.00;65.60;;;;;;5100477;28;20523;-83
2023/05/17 05:26:41;;;;;;;5.15;4.65;;;19.00;65.70;;;;;;5116445;28;20659;-83
2023/05/17 05:29:07;;;;;;;4.85;4.40;;;19.00;65.60;;;;;;5116979;28;20149;-82
2023/05/17 05:31:32;;;;;;;5.25;4.68;;;19.00;65.50;;;;;;5117053;28;20687;-84
2023/05/17 05:33:59;;;;;;;4.75;4.35;;;19.00;65.60;;;;;;5094555;28;20173;-83
2023/05/17 05:36:25;;;;;;;5.25;4.75;;;19.00;65.40;;;;;;5097967;28;20160;-83
2023/05/17 05:38:53;;;;;;;5.38;4.50;;;19.00;65.50;;;;;;5104841;28;20622;-83
2023/05/17 05:41:19;;;;;;;5.22;4.70;;;19.00;65.50;;;;;;5117531;28;20191;-82
2023/05/17 05:43:44;;;;;;;5.10;4.60;;;19.00;65.40;;;;;;5111690;28;20240;-83
2023/05/17 05:46:11;;;;;;;5.22;4.72;;;19.10;65.50;;;;;;5080489;28;20755;-82
2023/05/17 05:48:40;;;;;;;5.57;4.72;;;19.10;65.60;;;;;;5098528;28;20165;-83
2023/05/17 05:51:06;;;;;;;5.10;4.60;;;19.00;65.70;;;;;;5098339;28;20149;-83
2023/05/17 05:53:32;;;;;;;5.00;4.22;;;19.00;65.50;;;;;;5081694;28;20163;-83
2023/05/17 05:55:58;;;;;;;5.07;4.60;;;19.10;65.50;;;;;;5102754;28;20699;-83
2023/05/17 05:58:26;;;;;;;5.53;4.60;;;19.00;65.40;;;;;;5085844;28;20180;-83
2023/05/17 06:00:51;;;;;;;5.03;4.53;;;19.00;65.40;;;;;;5075066;28;20165;-81
2023/05/17 06:03:17;;;;;;;5.97;5.00;;;19.00;65.40;;;;;;5079879;28;20163;-81
2023/05/17 06:05:43;;;;;;;4.97;4.47;;;19.10;65.50;;;;;;5096923;28;20169;-82
2023/05/17 06:08:08;;;;;;;4.95;4.45;;;19.10;65.50;;;;;;5108043;28;20175;-83
2023/05/17 06:10:34;;;;;;;4.72;4.32;;;19.10;65.20;;;;;;5111618;28;20562;-82
2023/05/17 06:13:00;;;;;;;5.78;4.60;;;19.00;65.10;;;;;;5096851;28;20526;-82
2023/05/17 06:15:26;;;;;;;9.52;4.80;;;19.10;65.20;;;;;;5092854;28;20201;-82
2023/05/17 06:17:52;;;;;;;5.40;4.90;;;19.10;65.40;;;;;;5073395;28;20172;-82
2023/05/17 06:20:19;;;;;;;5.30;4.78;;;19.00;65.30;;;;;;5115333;28;20224;-82
2023/05/17 06:22:51;;;;;;;5.15;4.65;;;19.00;65.30;;;;;;5100885;28;20192;-84
2023/05/17 06:25:19;;;;;;;6.22;4.80;;;19.10;65.20;;;;;;5101853;28;20167;-85
2023/05/17 06:27:45;;;;;;;5.00;4.50;;;19.10;65.40;;;;;;5040936;28;20178;-85
2023/05/17 06:30:13;;;;;;;4.68;4.20;;;19.10;65.20;;;;;;5021943;28;20186;-87
2023/05/17 06:32:45;;;;;;;5.57;4.82;;;19.10;65.20;;;;;;5022293;28;20318;-84
2023/05/17 06:35:12;;;;;;;6.45;4.68;;;19.00;66.10;;;;;;5020405;28;20169;-85
2023/05/17 06:37:51;;;;;;;7.97;4.38;;;19.00;65.40;;;;;;5020274;28;20209;-86
2023/05/17 06:40:18;;;;;;;5.30;4.80;;;19.10;65.40;;;;;;5024370;28;20306;-88
2023/05/17 06:42:45;;;;;;;6.13;4.95;;;19.10;65.50;;;;;;4977717;28;20208;-83
2023/05/17 06:45:25;;;;;;;7.32;4.60;;;19.10;65.30;;;;;;4993503;28;20195;-86
2023/05/17 06:47:52;;;;;;;8.43;4.30;;;19.10;65.00;;;;;;4957337;28;20614;-85
2023/05/17 06:50:27;;;;;;;4.63;4.10;;;19.10;64.80;;;;;;4960552;28;20181;-87
2023/05/17 06:53:04;;;;;;;5.18;4.30;;;19.20;64.70;;;;;;4979735;28;20180;-87
2023/05/17 06:58:34;;;;;;;4.85;3.75;;;19.10;64.90;;;;;;4993835;28;20230;-86
2023/05/17 07:01:19;;;;;;;6.25;3.88;;;19.10;64.70;;;;;;5000271;28;20163;-84
2023/05/17 07:07:00;;;;;;;4.32;3.85;;;19.20;64.20;;;;;;4974641;28;20267;-80
2023/05/17 07:09:26;;;;;;;4.72;3.92;;;19.20;64.30;;;;;;4960134;28;20180;-81
2023/05/17 07:11:52;;;;;;;6.47;4.28;;;19.20;64.70;;;;;;4977296;28;20185;-82
2023/05/17 07:14:17;;;;;;;4.45;3.95;;;19.20;64.60;;;;;;4994774;28;20183;-81
2023/05/17 07:20:36;;;;;;;4.22;3.83;;;19.20;65.00;;;;;;4930416;29;20221;-82
2023/05/17 07:26:36;;;;;;;5.50;4.07;;;19.10;65.40;;;;;;4936309;29;20197;-81
2023/05/17 07:29:03;;;;;;;6.07;4.35;;;19.20;65.40;;;;;;4936264;28;20182;-81
2023/05/17 07:31:29;;;;;;;7.85;4.00;;;19.20;65.50;;;;;;4920527;29;20193;-81
2023/05/17 07:33:58;;;;;;;4.45;4.05;;;19.20;65.50;;;;;;4935865;28;20231;-82
2023/05/17 07:36:26;;;;;;;4.43;3.90;;;19.20;65.20;;;;;;4935567;29;20590;-82
2023/05/17 07:38:52;;;;;;;3.53;3.22;;;19.20;65.00;;;;;;4937218;28;20222;-81
2023/05/17 07:41:21;;;;;;;3.90;3.60;;;19.20;64.70;;;;;;4922776;29;20206;-82
2023/05/17 07:43:47;;;;;;;3.83;3.53;;;19.20;64.30;;;;;;4944701;28;20197;-81
2023/05/17 07:46:12;;;;;;;3.70;3.40;;;19.20;64.50;;;;;;4956719;29;20193;-81
2023/05/17 07:48:38;;;;;;;3.83;3.50;;;19.30;64.30;;;;;;4956343;29;20165;-81
2023/05/17 07:51:04;;;;;;;4.55;3.50;;;19.30;64.20;;;;;;4956776;29;20189;-81
2023/05/17 07:53:30;;;;;;;3.78;3.38;;;19.30;64.30;;;;;;4940272;29;20173;-81
2023/05/17 07:55:55;;;;;;;3.60;3.30;;;19.20;64.60;;;;;;4965470;28;20187;-82
2023/05/17 07:58:21;;;;;;;3.88;3.25;;;19.20;64.00;;;;;;5094679;28;20492;-82
2023/05/17 08:00:48;;;;;;;3.38;3.08;;;19.20;64.20;;;;;;5094717;28;20157;-82
2023/05/17 08:03:14;;;;;;;3.30;3.00;;;19.20;64.00;;;;;;5094550;28;20607;-82
2023/05/17 08:05:39;;;;;;;3.17;2.80;;;19.10;64.30;;;;;;5078812;28;20174;-82
2023/05/17 08:08:08;;;;;;;3.38;3.08;;;19.10;64.30;;;;;;5095876;28;20153;-82
2023/05/17 08:10:35;;;;;;;3.10;2.70;;;19.10;64.30;;;;;;5078572;28;20164;-82
2023/05/17 08:13:05;;;;;;;3.00;2.70;;;19.10;64.00;;;;;;5095081;28;20148;-83
2023/05/17 08:15:30;;;;;;;3.20;2.72;;;19.20;63.70;;;;;;5096398;28;20157;-82
2023/05/17 08:18:01;;;;;;;3.22;2.92;;;19.20;62.70;;;;;;5095174;28;20161;-82
2023/05/17 08:20:27;;;;;;;2.90;2.70;;;19.30;63.40;;;;;;5096168;28;20161;-82
2023/05/17 08:22:53;;;;;;;3.35;2.70;;;19.30;63.20;;;;;;5101098;28;20226;-82
2023/05/17 08:25:30;;;;;;;2.85;2.55;;;19.30;62.90;;;;;;5119626;28;20175;-83
2023/05/17 08:27:56;;;;;;;3.25;2.70;;;19.30;63.30;;;;;;5102702;28;20596;-83
2023/05/17 08:30:21;;;;;;;3.53;2.90;;;19.30;63.40;;;;;;5102663;28;20174;-84
2023/05/17 08:32:49;;;;;;;3.45;2.75;;;19.20;63.20;;;;;;5119400;28;20228;-82
2023/05/17 08:35:15;;;;;;;2.80;2.60;;;19.10;63.40;;;;;;5098025;28;20286;-82
2023/05/17 08:37:41;;;;;;;4.28;2.60;;;19.20;63.10;;;;;;5082806;28;20226;-81
2023/05/17 08:40:19;;;;;;;2.70;2.50;;;19.20;62.80;;;;;;5100089;28;20168;-83
2023/05/17 08:42:45;;;;;;;3.33;2.35;;;19.20;62.90;;;;;;5095994;28;20207;-81
2023/05/17 08:45:10;;;;;;;3.40;2.58;;;19.30;62.40;;;;;;5094558;28;20164;-82
2023/05/17 08:47:45;;;;;;;2.92;2.60;;;19.30;62.80;;;;;;5078200;28;20175;-81
2023/05/17 08:50:11;;;;;;;2.95;2.65;;;19.30;62.70;;;;;;5096052;28;20152;-81
2023/05/17 08:52:38;;;;;;;2.53;2.33;;;19.30;62.80;;;;;;5095020;28;20201;-82
2023/05/17 08:55:07;;;;;;;2.85;2.55;;;19.30;62.30;;;;;;5111835;28;20191;-81
2023/05/17 08:57:36;;;;;;;3.13;2.67;;;19.40;62.90;;;;;;5078300;28;20532;-81
2023/05/17 09:00:08;;;;;;;2.75;2.50;;;19.30;62.50;;;;;;5108406;28;20647;-81
2023/05/17 09:02:37;;;;;;;3.20;2.47;;;19.30;62.40;;;;;;5117518;28;20659;-81
2023/05/17 09:05:24;;;;;;;3.60;2.50;;;19.30;62.70;;;;;;5117159;28;20160;-84
2023/05/17 09:07:49;;;;;;;2.95;2.60;;;19.30;62.30;;;;;;5102306;28;20169;-84
2023/05/17 09:10:16;;;;;;;4.20;2.28;;;19.30;62.20;;;;;;5115370;28;20587;-83
2023/05/17 09:12:42;;;;;;;5.07;2.50;;;19.30;62.60;;;;;;5116051;28;20530;-84
2023/05/17 09:15:13;;;;;;;2.78;2.50;;;19.30;61.90;;;;;;5103043;28;20617;-83
2023/05/17 09:17:39;;;;;;;2.55;2.35;;;19.30;62.00;;;;;;5117710;28;20175;-83
2023/05/17 09:20:06;;;;;;;2.70;2.50;;;19.30;62.30;;;;;;5137392;27;20147;-83
2023/05/17 09:22:32;;;;;;;2.40;2.20;;;19.30;62.00;;;;;;5120110;27;20688;-85
2023/05/17 09:25:01;;;;;;;2.78;2.35;;;19.40;62.10;;;;;;5120370;27;20162;-82
2023/05/17 09:27:30;;;;;;;4.18;2.10;;;19.30;61.60;;;;;;5104706;27;20205;-80
2023/05/17 09:29:56;;;;;;;2.65;2.30;;;19.30;61.40;;;;;;5122454;27;20175;-83
2023/05/17 09:32:23;;;;;;;2.40;2.20;;;19.30;61.70;;;;;;5105760;27;20697;-78
2023/05/17 09:34:50;;;;;;;2.65;2.25;;;19.30;61.80;;;;;;5139468;27;20164;-83
2023/05/17 09:37:17;;;;;;;3.10;2.10;;;19.30;61.70;;;;;;5121480;27;20163;-82
2023/05/17 09:39:44;;;;;;;2.47;2.20;;;19.40;61.60;;;;;;5103946;27;20633;-81
2023/05/17 09:42:11;;;;;;;3.10;2.08;;;19.30;61.50;;;;;;5122523;27;20183;-81
2023/05/17 09:44:48;;;;;;;3.25;2.33;;;19.30;61.50;;;;;;5122005;27;20490;-82
2023/05/17 09:47:25;;;;;;;2.90;1.90;;;19.30;61.50;;;;;;5122646;27;20593;-82
2023/05/17 09:49:51;;;;;;;2.22;2.03;;;19.30;61.50;;;;;;5119354;27;20543;-83
2023/05/17 09:52:19;;;;;;;2.03;1.80;;;19.30;61.20;;;;;;5119283;27;20164;-82
2023/05/17 09:55:00;;;;;;;1.85;1.75;;;19.30;61.00;;;;;;5137298;27;20171;-83
2023/05/17 09:57:27;;;;;;;2.00;1.80;;;19.30;60.80;;;;;;5102423;27;20225;-83
2023/05/17 09:59:56;;;;;;;2.45;2.25;;;19.30;60.50;;;;;;5102315;27;20175;-82
2023/05/17 10:02:26;;;;;;;2.08;1.88;;;19.30;60.30;;;;;;5118345;27;20186;-82
2023/05/17 10:04:52;;;;;;;2.22;1.90;;;19.30;60.00;;;;;;5118870;27;20152;-82
2023/05/17 10:07:18;;;;;;;2.00;1.73;;;19.30;60.20;;;;;;5118443;27;20197;-81
2023/05/17 10:09:47;;;;;;;1.77;1.67;;;19.40;60.00;;;;;;5136191;27;20296;-81
2023/05/17 10:12:15;;;;;;;2.00;1.80;;;19.30;59.80;;;;;;5118501;27;20155;-81
2023/05/17 10:14:41;;;;;;;1.92;1.58;;;19.30;59.80;;;;;;5100993;27;20163;-81
2023/05/17 10:17:07;;;;;;;1.60;1.50;;;19.30;59.60;;;;;;5118623;27;20649;-81
2023/05/17 10:19:33;;;;;;;2.35;1.80;;;19.30;59.40;;;;;;5114210;28;20537;-81
2023/05/17 10:21:59;;;;;;;3.33;1.60;;;19.30;59.50;;;;;;5095249;28;20219;-81
2023/05/17 10:24:25;;;;;;;2.80;1.70;;;19.30;59.50;;;;;;5093938;28;20199;-81
2023/05/17 10:26:50;;;;;;;2.03;1.50;;;19.30;59.50;;;;;;5095949;28;20579;-81
2023/05/17 10:29:19;;;;;;;2.10;1.55;;;19.40;59.50;;;;;;5096007;28;20176;-81
2023/05/17 10:31:50;;;;;;;1.80;1.58;;;19.30;59.00;;;;;;5078382;28;20202;-81
2023/05/17 10:34:16;;;;;;;1.90;1.70;;;19.30;59.10;;;;;;5096500;28;20223;-82
2023/05/17 10:36:43;;;;;;;3.05;1.50;;;19.30;59.10;;;;;;5095944;28;20164;-81
2023/05/17 10:39:09;;;;;;;1.40;1.30;;;19.40;58.90;;;;;;5096176;28;20241;-81
2023/05/17 10:41:36;;;;;;;3.88;1.67;;;19.30;58.80;;;;;;5112775;28;20192;-81
2023/05/17 10:44:03;;;;;;;1.50;1.33;;;19.40;58.70;;;;;;5078881;28;20360;-81
2023/05/17 10:46:29;;;;;;;1.63;1.50;;;19.40;58.40;;;;;;5078739;28;20642;-81
2023/05/17 10:48:56;;;;;;;1.60;1.50;;;19.40;58.50;;;;;;5095826;28;20199;-81
2023/05/17 10:51:23;;;;;;;2.45;1.50;;;19.40;58.40;;;;;;5097590;27;20190;-82
2023/05/17 10:54:06;;;;;;;2.63;1.45;;;19.40;58.30;;;;;;5118445;27;20171;-80
2023/05/17 10:56:32;;;;;;;2.60;1.40;;;19.40;58.30;;;;;;5117668;27;20148;-80
2023/05/17 10:59:16;;;;;;;2.05;1.50;;;19.40;58.00;;;;;;5116907;27;20175;-80
2023/05/17 11:02:03;;;;;;;2.20;1.33;;;19.40;58.00;;;;;;5117755;27;20243;-82
2023/05/17 11:04:38;;;;;;;1.90;1.38;;;19.40;57.90;;;;;;5102934;27;20163;-81
2023/05/17 11:07:25;;;;;;;1.73;1.60;;;19.40;58.00;;;;;;5117409;27;20158;-81
2023/05/17 11:10:05;;;;;;;1.95;1.45;;;19.40;57.70;;;;;;5118053;27;20562;-81
2023/05/17 11:12:40;;;;;;;1.52;1.42;;;19.40;57.60;;;;;;5095780;28;20180;-81
2023/05/17 11:15:13;;;;;;;1.95;1.58;;;19.40;57.60;;;;;;5095842;28;20252;-81
2023/05/17 11:17:49;;;;;;;2.55;1.35;;;19.40;57.20;;;;;;5095414;28;20303;-81
2023/05/17 11:20:32;;;;;;;2.10;1.30;;;19.50;57.30;;;;;;5095670;28;20167;-81
2023/05/17 11:23:03;;;;;;;1.50;1.40;;;19.40;57.30;;;;;;5112052;28;20219;-81
2023/05/17 11:25:31;;;;;;;1.55;1.15;;;19.40;57.30;;;;;;5078811;28;20614;-81
2023/05/17 11:27:57;;;;;;;1.40;1.30;;;19.40;57.10;;;;;;5095019;28;20176;-81
2023/05/17 11:30:25;;;;;;;1.55;1.17;;;19.50;57.20;;;;;;5078066;28;20160;-81
2023/05/17 11:33:02;;;;;;;1.40;1.30;;;19.40;57.20;;;;;;5095259;28;20212;-81
2023/05/17 11:35:32;;;;;;;1.20;1.10;;;19.40;57.00;;;;;;5079503;28;20578;-81
2023/05/17 11:38:16;;;;;;;1.40;1.30;;;19.50;57.00;;;;;;5078264;28;20183;-81
2023/05/17 11:40:42;;;;;;;1.33;1.23;;;19.40;56.90;;;;;;5095132;28;20552;-81
2023/05/17 11:43:10;;;;;;;1.52;1.10;;;19.40;56.90;;;;;;5094816;28;20257;-81
2023/05/17 11:45:46;;;;;;;1.25;1.15;;;19.50;56.90;;;;;;5113837;28;20194;-81
2023/05/17 11:48:12;;;;;;;5.07;1.15;;;19.40;56.80;;;;;;5062617;28;20164;-81
2023/05/17 11:50:38;;;;;;;1.27;1.17;;;19.40;56.70;;;;;;5095821;28;20231;-81
2023/05/17 11:53:06;;;;;;;1.10;1.00;;;19.40;56.80;;;;;;5113979;28;20621;-81
2023/05/17 11:55:36;;;;;;;1.38;1.20;;;19.40;56.60;;;;;;5062106;28;20168;-81
2023/05/17 11:58:02;;;;;;;1.98;1.20;;;19.40;56.50;;;;;;5063296;28;20232;-81
2023/05/17 12:00:27;;;;;;;1.35;1.25;;;19.50;56.40;;;;;;5096547;28;20171;-81
2023/05/17 12:02:53;;;;;;;1.15;1.00;;;19.40;56.40;;;;;;5062499;28;20324;-81
2023/05/17 12:05:19;;;;;;;2.08;1.20;;;19.40;56.20;;;;;;5096029;28;20159;-82
2023/05/17 12:07:45;;;;;;;1.85;1.10;;;19.40;56.20;;;;;;5062603;28;20230;-81
2023/05/17 12:10:12;;;;;;;1.17;1.00;;;19.40;56.90;;;;;;5081212;28;20602;-82
2023/05/17 12:12:37;;;;;;;1.10;1.00;;;19.40;56.20;;;;;;5095562;28;20171;-82
2023/05/17 12:15:03;;;;;;;1.25;0.98;;;19.40;56.00;;;;;;5095640;28;20164;-82
2023/05/17 12:17:32;;;;;;;1.58;1.17;;;19.40;56.00;;;;;;5079876;28;20164;-81
2023/05/17 12:20:06;;;;;;;1.42;0.93;;;19.40;56.00;;;;;;5080110;28;20168;-81
2023/05/17 12:22:32;;;;;;;1.40;1.10;;;19.40;56.00;;;;;;5077444;28;20224;-81
2023/05/17 12:24:58;;;;;;;1.20;1.10;;;19.40;55.80;;;;;;5073987;28;20158;-80
2023/05/17 12:27:25;;;;;;;2.67;1.17;;;19.40;56.10;;;;;;5073186;28;20165;-81
2023/05/17 12:29:50;;;;;;;1.25;1.15;;;19.40;56.00;;;;;;5073794;28;20591;-81
2023/05/17 12:32:16;;;;;;;1.30;0.90;;;19.30;56.00;;;;;;5090565;28;20158;-79
2023/05/17 12:34:42;;;;;;;1.77;1.00;;;19.30;56.00;;;;;;5073242;28;20552;-82
2023/05/17 12:37:09;;;;;;;3.80;1.00;;;19.30;56.00;;;;;;5072033;28;20514;-81
2023/05/17 12:39:34;;;;;;;1.83;0.85;;;19.40;56.20;;;;;;5072395;28;20244;-81
2023/05/17 12:42:00;;;;;;;1.95;1.08;;;19.30;56.00;;;;;;5072354;28;20195;-82
2023/05/17 12:44:26;;;;;;;0.82;0.70;;;19.30;56.10;;;;;;5089383;28;20165;-81
2023/05/17 12:46:54;;;;;;;2.05;1.00;;;19.30;56.00;;;;;;5073236;28;20163;-82
2023/05/17 12:49:20;;;;;;;1.55;0.90;;;19.30;56.00;;;;;;5073723;28;20715;-81
2023/05/17 12:51:46;;;;;;;1.98;1.00;;;19.30;55.90;;;;;;5090088;28;20172;-81
2023/05/17 12:54:15;;;;;;;1.05;0.88;;;19.40;55.80;;;;;;5075236;28;20169;-81
2023/05/17 12:56:42;;;;;;;0.70;0.70;;;19.30;55.70;;;;;;5076843;28;20181;-80
2023/05/17 12:59:15;;;;;;;1.48;1.00;;;19.30;55.70;;;;;;5077028;28;20164;-81
2023/05/17 13:01:47;;;;;;;3.00;0.80;;;19.30;55.70;;;;;;5076672;28;20188;-82
2023/05/17 13:04:14;;;;;;;1.02;0.77;;;19.30;55.60;;;;;;5094403;28;20149;-81